Time;durP1;ratioP1;P1;durP2;ratioP2;P2;SDS_P1;SDS_P2;PMS_P1;PMS_P2;Temp;Humidity;BMP_temperature;BMP_pressure;BME280_temperature;BME280_humidity;BME280_pressure;Samples;Min_cycle;Max_cycle;Signal;HPM_P1;HPM_P2
2021/04/11 00:00:23;;;;;;;;;;;18.20;52.80;;;;;;4930476;28;19993;-79
2021/04/11 00:02:48;;;;;;;;;;;18.10;52.80;;;;;;4927759;28;19914;-78
2021/04/11 00:05:14;;;;;;;;;;;18.10;52.70;;;;;;4923531;28;20367;-79
2021/04/11 00:07:40;;;;;;;;;;;18.20;52.70;;;;;;4922161;29;20017;-78
2021/04/11 00:10:07;;;;;;;;;;;18.20;52.70;;;;;;4928639;28;19994;-79
2021/04/11 00:12:35;;;;;;;;;;;18.10;52.70;;;;;;4923012;28;19915;-78
2021/04/11 00:15:00;;;;;;;;;;;18.10;52.70;;;;;;4926468;29;19990;-79
2021/04/11 00:17:26;;;;;;;;;;;18.20;52.70;;;;;;4946396;28;20423;-78
2021/04/11 00:19:51;;;;;;;;;;;18.10;52.70;;;;;;4929604;28;20337;-78
2021/04/11 00:22:17;;;;;;;;;;;18.10;52.70;;;;;;4932981;28;20220;-79
2021/04/11 00:24:42;;;;;;;;;;;18.10;52.70;;;;;;4925784;28;19966;-78
2021/04/11 00:27:08;;;;;;;;;;;18.10;52.70;;;;;;4946432;28;20331;-79
2021/04/11 00:29:33;;;;;;;;;;;18.10;52.70;;;;;;4928930;28;19919;-79
2021/04/11 00:32:00;;;;;;;;;;;18.10;52.70;;;;;;4932548;28;19934;-77
2021/04/11 00:34:26;;;;;;;;;;;18.10;52.70;;;;;;4961701;28;19922;-78
2021/04/11 00:36:52;;;;;;;;;;;18.10;52.60;;;;;;4944800;28;19911;-79
2021/04/11 00:39:17;;;;;;;;;;;18.10;52.70;;;;;;4931839;28;20363;-78
2021/04/11 00:41:46;;;;;;;;;;;18.10;52.60;;;;;;4953996;28;19918;-78
2021/04/11 00:44:11;;;;;;;;;;;18.10;52.60;;;;;;4924806;28;20360;-78
2021/04/11 00:46:48;;;;;;;;;;;18.10;52.70;;;;;;4964356;28;19927;-79
2021/04/11 00:49:17;;;;;;;;;;;18.10;52.60;;;;;;4957919;28;19923;-79
2021/04/11 00:51:43;;;;;;;;;;;18.10;52.70;;;;;;4930330;28;19926;-79
2021/04/11 00:54:09;;;;;;;;;;;18.10;52.70;;;;;;4923063;29;20292;-78
2021/04/11 00:56:35;;;;;;;;;;;18.10;52.70;;;;;;4925923;28;20044;-78
2021/04/11 00:59:01;;;;;;;;;;;18.10;52.70;;;;;;4931876;28;19977;-80
2021/04/11 01:01:27;;;;;;;;;;;18.10;52.60;;;;;;4960604;28;19937;-78
2021/04/11 01:03:53;;;;;;;;;;;18.10;52.70;;;;;;4927519;28;20346;-79
2021/04/11 01:06:21;;;;;;;;;;;18.10;52.60;;;;;;4938817;29;19914;-78
2021/04/11 01:08:46;;;;;;;;;;;18.10;52.60;;;;;;4949535;28;19942;-79
2021/04/11 01:11:17;;;;;;;;;;;18.10;52.70;;;;;;4933889;28;20371;-78
2021/04/11 01:13:44;;;;;;;;;;;18.10;52.60;;;;;;4931909;28;20372;-79
2021/04/11 01:16:10;;;;;;;;;;;18.10;52.60;;;;;;4930228;28;19916;-79
2021/04/11 01:18:36;;;;;;;;;;;18.10;52.60;;;;;;4925914;28;19915;-79
2021/04/11 01:21:05;;;;;;;;;;;18.00;52.60;;;;;;4919867;28;19938;-78
2021/04/11 01:23:39;;;;;;;;;;;18.10;52.70;;;;;;4931445;28;19915;-79
2021/04/11 01:26:05;;;;;;;;;;;18.10;52.60;;;;;;4916848;28;19927;-78
2021/04/11 01:28:36;;;;;;;;;;;18.00;52.60;;;;;;4923741;28;20010;-78
2021/04/11 01:31:05;;;;;;;;;;;18.10;52.70;;;;;;4928979;28;20291;-78
2021/04/11 01:33:32;;;;;;;;;;;18.00;52.60;;;;;;4922963;29;19915;-78
2021/04/11 01:35:58;;;;;;;;;;;18.00;52.70;;;;;;4929655;28;20439;-79
2021/04/11 01:38:24;;;;;;;;;;;18.00;52.70;;;;;;4930471;29;20006;-78
2021/04/11 01:40:58;;;;;;;;;;;18.00;52.70;;;;;;4929696;28;19916;-79
2021/04/11 01:43:24;;;;;;;;;;;18.10;52.70;;;;;;4928410;28;19915;-78
2021/04/11 01:45:50;;;;;;;;;;;18.00;52.70;;;;;;4928780;28;20026;-79
2021/04/11 01:48:16;;;;;;;;;;;18.00;52.70;;;;;;4929574;28;19919;-78
2021/04/11 01:50:43;;;;;;;;;;;18.00;52.70;;;;;;4927952;28;19927;-79
2021/04/11 01:53:09;;;;;;;;;;;18.00;52.70;;;;;;4924593;28;19955;-79
2021/04/11 01:55:35;;;;;;;;;;;18.00;52.70;;;;;;4920761;28;19926;-78
2021/04/11 01:58:01;;;;;;;;;;;18.00;52.70;;;;;;4916466;29;19965;-79
2021/04/11 02:00:35;;;;;;;;;;;18.00;52.70;;;;;;4925145;29;19915;-79
2021/04/11 02:03:03;;;;;;;;;;;18.00;52.60;;;;;;4931911;29;19915;-79
2021/04/11 02:05:29;;;;;;;;;;;18.00;52.70;;;;;;4925732;28;19927;-79
2021/04/11 02:07:55;;;;;;;;;;;18.00;52.70;;;;;;4930703;29;20375;-79
2021/04/11 02:10:28;;;;;;;;;;;18.00;52.60;;;;;;4929288;28;20287;-79
2021/04/11 02:12:54;;;;;;;;;;;18.00;52.70;;;;;;4933770;28;20001;-79
2021/04/11 02:15:21;;;;;;;;;;;18.00;52.60;;;;;;4927634;29;20009;-78
2021/04/11 02:17:47;;;;;;;;;;;18.00;52.70;;;;;;4939073;28;20390;-79
2021/04/11 02:20:13;;;;;;;;;;;18.00;52.70;;;;;;4922629;28;19915;-79
2021/04/11 02:22:39;;;;;;;;;;;18.00;52.60;;;;;;4920905;28;19915;-79
2021/04/11 02:25:06;;;;;;;;;;;18.00;52.60;;;;;;4932476;29;19930;-78
2021/04/11 02:27:31;;;;;;;;;;;18.00;52.60;;;;;;4928639;29;21849;-79
2021/04/11 02:30:00;;;;;;;;;;;18.00;52.70;;;;;;4926546;28;20254;-78
2021/04/11 02:32:26;;;;;;;;;;;18.00;52.60;;;;;;4933040;28;19915;-78
2021/04/11 02:34:51;;;;;;;;;;;18.00;52.60;;;;;;4924869;28;20398;-78
2021/04/11 02:37:29;;;;;;;;;;;18.00;52.60;;;;;;4950713;28;19922;-78
2021/04/11 02:39:55;;;;;;;;;;;18.00;52.60;;;;;;4927027;28;20372;-78
2021/04/11 02:42:22;;;;;;;;;;;18.00;52.60;;;;;;4917385;29;19982;-79
2021/04/11 02:44:49;;;;;;;;;;;18.00;52.60;;;;;;4915395;29;19921;-79
2021/04/11 02:47:15;;;;;;;;;;;18.00;52.60;;;;;;4927947;28;20210;-78
2021/04/11 02:49:42;;;;;;;;;;;18.00;52.60;;;;;;4930744;28;20568;-79
2021/04/11 02:52:13;;;;;;;;;;;18.00;52.60;;;;;;4925673;28;19958;-78
2021/04/11 02:54:39;;;;;;;;;;;18.00;52.60;;;;;;4931272;29;19915;-79
2021/04/11 02:57:04;;;;;;;;;;;18.00;52.60;;;;;;4943702;28;19920;-78
2021/04/11 02:59:30;;;;;;;;;;;18.00;52.60;;;;;;4993107;28;20254;-79
2021/04/11 03:01:56;;;;;;;;;;;18.00;52.60;;;;;;4924538;28;20400;-79
2021/04/11 03:04:23;;;;;;;;;;;18.00;52.60;;;;;;4937195;28;19923;-78
2021/04/11 03:06:54;;;;;;;;;;;18.00;52.60;;;;;;4927162;29;19976;-78
2021/04/11 03:09:23;;;;;;;;;;;18.00;52.50;;;;;;4944532;28;19923;-78
2021/04/11 03:11:50;;;;;;;;;;;18.00;52.60;;;;;;4928077;28;19950;-79
2021/04/11 03:14:17;;;;;;;;;;;18.00;52.60;;;;;;4921451;28;19927;-79
2021/04/11 03:16:43;;;;;;;;;;;18.00;52.60;;;;;;4926579;28;19915;-79
2021/04/11 03:19:09;;;;;;;;;;;18.00;52.70;;;;;;4929598;28;19914;-78
2021/04/11 03:21:35;;;;;;;;;;;18.00;52.50;;;;;;4952744;28;20006;-78
2021/04/11 03:24:02;;;;;;;;;;;17.90;52.60;;;;;;4916702;29;20010;-80
2021/04/11 03:26:32;;;;;;;;;;;17.90;52.60;;;;;;4941644;28;20406;-79
2021/04/11 03:29:02;;;;;;;;;;;18.00;52.50;;;;;;4923361;28;19918;-78
2021/04/11 03:31:38;;;;;;;;;;;18.00;52.50;;;;;;4930872;28;19919;-79
2021/04/11 03:34:05;;;;;;;;;;;18.00;52.60;;;;;;4922185;29;19980;-79
2021/04/11 03:36:31;;;;;;;;;;;18.00;52.60;;;;;;4925679;28;19926;-78
2021/04/11 03:38:58;;;;;;;;;;;18.00;52.60;;;;;;4926617;28;19929;-79
2021/04/11 03:41:27;;;;;;;;;;;18.00;52.60;;;;;;4926312;29;19965;-78
2021/04/11 03:43:54;;;;;;;;;;;17.90;52.60;;;;;;4927143;29;20417;-79
2021/04/11 03:46:22;;;;;;;;;;;17.90;52.60;;;;;;4930534;29;19928;-79
2021/04/11 03:48:57;;;;;;;;;;;17.90;52.60;;;;;;4933287;28;19919;-78
2021/04/11 03:51:25;;;;;;;;;;;17.90;52.50;;;;;;4959225;28;19935;-79
2021/04/11 03:53:54;;;;;;;;;;;18.00;52.70;;;;;;4940187;28;19919;-78
2021/04/11 03:56:21;;;;;;;;;;;18.00;52.60;;;;;;4935701;28;20414;-79
2021/04/11 03:58:48;;;;;;;;;;;18.00;52.70;;;;;;4927121;28;19966;-79
2021/04/11 04:01:16;;;;;;;;;;;17.90;52.60;;;;;;4926087;28;19949;-81
2021/04/11 04:03:42;;;;;;;;;;;17.90;52.60;;;;;;4926824;28;19923;-77
2021/04/11 04:06:10;;;;;;;;;;;18.00;52.60;;;;;;4922980;29;19919;-77
2021/04/11 04:08:36;;;;;;;;;;;18.00;52.80;;;;;;4925044;28;19934;-77
2021/04/11 04:11:09;;;;;;;;;;;17.90;52.90;;;;;;4923584;28;20284;-77
2021/04/11 04:13:38;;;;;;;;;;;18.00;53.00;;;;;;4954418;28;19923;-76
2021/04/11 04:16:12;;;;;;;;;;;17.90;53.00;;;;;;4930429;29;19957;-77
2021/04/11 04:18:56;;;;;;;;;;;18.00;53.10;;;;;;4950993;28;19919;-77
2021/04/11 04:21:32;;;;;;;;;;;18.00;53.10;;;;;;4957195;28;19923;-77
2021/04/11 04:24:01;;;;;;;;;;;18.00;53.20;;;;;;4926706;28;19915;-78
2021/04/11 04:26:36;;;;;;;;;;;18.00;53.20;;;;;;4918284;28;19970;-76
2021/04/11 04:29:24;;;;;;;;;;;18.00;53.20;;;;;;4930382;29;19919;-77
2021/04/11 04:32:08;;;;;;;;;;;17.90;53.20;;;;;;4942387;28;20368;-77
2021/04/11 04:34:53;;;;;;;;;;;17.90;53.30;;;;;;4958134;28;19915;-77
2021/04/11 04:37:18;;;;;;;;;;;18.00;53.30;;;;;;4923712;28;19922;-76
2021/04/11 04:39:52;;;;;;;;;;;18.00;53.40;;;;;;4964923;28;20284;-77
2021/04/11 04:42:20;;;;;;;;;;;18.00;53.40;;;;;;4927042;28;19915;-77
2021/04/11 04:45:09;;;;;;;;;;;18.00;53.40;;;;;;4936575;28;19914;-77
2021/04/11 04:47:53;;;;;;;;;;;18.00;53.40;;;;;;4935608;28;20372;-77
2021/04/11 04:50:34;;;;;;;;;;;18.00;53.40;;;;;;4926035;28;19921;-76
2021/04/11 04:53:18;;;;;;;;;;;18.00;53.50;;;;;;4929385;29;19922;-77
2021/04/11 04:55:48;;;;;;;;;;;18.00;53.40;;;;;;4958767;28;19922;-78
2021/04/11 04:58:19;;;;;;;;;;;18.00;53.50;;;;;;4960303;28;19978;-77
2021/04/11 05:00:47;;;;;;;;;;;18.00;53.50;;;;;;4930552;28;19919;-77
2021/04/11 05:03:14;;;;;;;;;;;18.00;53.50;;;;;;4932497;28;20009;-77
2021/04/11 05:05:44;;;;;;;;;;;17.90;53.50;;;;;;4964144;28;19915;-77
2021/04/11 05:08:16;;;;;;;;;;;18.00;53.50;;;;;;4927796;28;19926;-78
2021/04/11 05:10:45;;;;;;;;;;;18.00;53.50;;;;;;4936895;29;20386;-77
2021/04/11 05:13:19;;;;;;;;;;;18.00;53.50;;;;;;4928949;28;19966;-77
2021/04/11 05:15:46;;;;;;;;;;;18.00;53.50;;;;;;4923988;29;20365;-77
2021/04/11 05:18:38;;;;;;;;;;;18.00;53.50;;;;;;4952097;28;19911;-77
2021/04/11 05:21:10;;;;;;;;;;;18.00;53.50;;;;;;4921969;28;19998;-77
2021/04/11 05:23:41;;;;;;;;;;;18.00;53.50;;;;;;4930653;28;19911;-77
2021/04/11 05:26:22;;;;;;;;;;;18.00;53.50;;;;;;4954475;28;19915;-77
2021/04/11 05:29:12;;;;;;;;;;;18.00;53.40;;;;;;4967901;28;19956;-77
2021/04/11 05:31:39;;;;;;;;;;;18.00;53.40;;;;;;4919934;28;19954;-77
2021/04/11 05:34:06;;;;;;;;;;;18.00;53.40;;;;;;4922906;28;19946;-79
2021/04/11 05:36:40;;;;;;;;;;;18.10;53.40;;;;;;4944030;28;19921;-78
2021/04/11 05:39:09;;;;;;;;;;;18.00;53.40;;;;;;4962074;28;19962;-77
2021/04/11 05:41:38;;;;;;;;;;;18.10;53.40;;;;;;4955852;28;19919;-77
2021/04/11 05:44:16;;;;;;;;;;;18.00;53.40;;;;;;4930308;29;19968;-77
2021/04/11 05:46:50;;;;;;;;;;;18.10;53.40;;;;;;4939762;28;19922;-77
2021/04/11 05:49:18;;;;;;;;;;;18.10;53.40;;;;;;4942798;28;19918;-77
2021/04/11 05:52:04;;;;;;;;;;;18.10;53.40;;;;;;4932629;28;19918;-77
2021/04/11 05:54:32;;;;;;;;;;;18.10;53.40;;;;;;4926470;28;20288;-77
2021/04/11 05:57:03;;;;;;;;;;;18.10;53.40;;;;;;4926247;29;19915;-77
2021/04/11 05:59:33;;;;;;;;;;;18.10;53.40;;;;;;4931374;28;20012;-78
2021/04/11 06:01:59;;;;;;;;;;;18.10;53.30;;;;;;4931134;28;19914;-77
2021/04/11 06:04:32;;;;;;;;;;;18.10;53.30;;;;;;4929875;28;19926;-77
2021/04/11 06:07:00;;;;;;;;;;;18.10;53.30;;;;;;4930750;28;19915;-78
2021/04/11 06:10:00;;;;;;;;;;;18.20;53.30;;;;;;4931925;28;19927;-77
2021/04/11 06:12:47;;;;;;;;;;;18.20;53.20;;;;;;4991234;28;20402;-77
2021/04/11 06:15:13;;;;;;;;;;;18.20;53.20;;;;;;4938931;28;19915;-78
2021/04/11 06:17:41;;;;;;;;;;;18.20;53.10;;;;;;4925455;28;19923;-77
2021/04/11 06:20:07;;;;;;;;;;;18.20;53.10;;;;;;4917289;29;19922;-79
2021/04/11 06:22:42;;;;;;;;;;;18.20;53.10;;;;;;4930054;29;19922;-77
2021/04/11 06:25:33;;;;;;;;;;;18.30;53.10;;;;;;4930322;28;19915;-75
2021/04/11 06:28:02;;;;;;;;;;;18.20;53.10;;;;;;4956459;28;19919;-77
2021/04/11 06:30:36;;;;;;;;;;;18.30;53.10;;;;;;4921422;29;19968;-76
2021/04/11 06:33:22;;;;;;;;;;;18.30;53.10;;;;;;4946350;28;19915;-78
2021/04/11 06:35:49;;;;;;;;;;;18.20;53.10;;;;;;4922653;28;20006;-77
2021/04/11 06:38:18;;;;;;;;;;;18.30;53.10;;;;;;4927666;29;19915;-75
2021/04/11 06:40:51;;;;;;;;;;;18.30;53.00;;;;;;4919254;28;19915;-76
2021/04/11 06:43:36;;;;;;;;;;;18.30;53.10;;;;;;4926743;29;19960;-77
2021/04/11 06:46:20;;;;;;;;;;;18.30;53.10;;;;;;4936991;28;19923;-77
2021/04/11 06:48:45;;;;;;;;;;;18.30;53.10;;;;;;4960777;28;19927;-76
2021/04/11 06:51:17;;;;;;;;;;;18.30;53.10;;;;;;4945009;28;21308;-77
2021/04/11 06:53:49;;;;;;;;;;;18.30;53.10;;;;;;4925467;28;19915;-76
2021/04/11 06:56:33;;;;;;;;;;;18.30;53.10;;;;;;4959903;28;20091;-76
2021/04/11 06:59:17;;;;;;;;;;;18.30;53.10;;;;;;4957344;28;20003;-76
2021/04/11 07:01:46;;;;;;;;;;;18.30;53.10;;;;;;4955163;28;19954;-76
2021/04/11 07:04:30;;;;;;;;;;;18.30;53.10;;;;;;4970478;28;19914;-76
2021/04/11 07:07:08;;;;;;;;;;;18.30;53.00;;;;;;4981349;28;19915;-76
2021/04/11 07:09:33;;;;;;;;;;;18.30;53.00;;;;;;4929882;28;19919;-76
2021/04/11 07:12:17;;;;;;;;;;;18.30;52.90;;;;;;4927205;28;19926;-77
2021/04/11 07:14:46;;;;;;;;;;;18.40;52.80;;;;;;4964203;28;19964;-77
2021/04/11 07:17:25;;;;;;;;;;;18.30;52.80;;;;;;4933666;28;21882;-84
2021/04/11 07:20:17;;;;;;;;;;;18.40;52.70;;;;;;4922397;28;19915;-83
2021/04/11 07:23:01;;;;;;;;;;;18.40;52.80;;;;;;4972767;28;19957;-83
2021/04/11 07:25:34;;;;;;;;;;;18.40;52.70;;;;;;4949463;28;20014;-83
2021/04/11 07:28:07;;;;;;;;;;;18.40;52.70;;;;;;4919195;29;19962;-83
2021/04/11 07:30:46;;;;;;;;;;;18.40;52.70;;;;;;4960775;28;19919;-83
2021/04/11 07:33:27;;;;;;;;;;;18.40;52.70;;;;;;4926607;28;19969;-83
2021/04/11 07:36:11;;;;;;;;;;;18.40;52.70;;;;;;4960556;28;20376;-82
2021/04/11 07:38:47;;;;;;;;;;;18.40;52.60;;;;;;4956101;28;19922;-83
2021/04/11 07:41:24;;;;;;;;;;;18.50;52.60;;;;;;4937376;28;19923;-82
2021/04/11 07:43:57;;;;;;;;;;;18.50;52.60;;;;;;4920803;28;19916;-83
2021/04/11 07:46:41;;;;;;;;;;;18.60;52.50;;;;;;4929878;28;19930;-83
2021/04/11 07:49:28;;;;;;;;;;;18.50;52.50;;;;;;4959179;28;19919;-83
2021/04/11 07:52:08;;;;;;;;;;;18.60;52.40;;;;;;4924368;29;19926;-82
2021/04/11 07:54:45;;;;;;;;;;;18.60;52.30;;;;;;4931764;28;20356;-83
2021/04/11 07:57:35;;;;;;;;;;;18.70;52.30;;;;;;4931889;29;19915;-83
2021/04/11 08:00:07;;;;;;;;;;;18.70;52.20;;;;;;4925078;29;19915;-83
2021/04/11 08:03:05;;;;;;;;;;;18.80;52.10;;;;;;4925684;28;20327;-83
2021/04/11 08:05:49;;;;;;;;;;;18.70;52.10;;;;;;4978585;28;19951;-82
2021/04/11 08:08:30;;;;;;;;;;;18.70;52.10;;;;;;4961476;28;19938;-82
2021/04/11 08:11:08;;;;;;;;;;;18.80;52.20;;;;;;4949979;28;20072;-83
2021/04/11 08:13:39;;;;;;;;;;;18.80;52.20;;;;;;4918036;28;20058;-83
2021/04/11 08:16:05;;;;;;;;;;;18.70;52.20;;;;;;4957649;28;20526;-83
2021/04/11 08:18:49;;;;;;;;;;;18.70;52.30;;;;;;4954836;28;19922;-83
2021/04/11 08:21:18;;;;;;;;;;;18.70;52.30;;;;;;4959237;28;19915;-84
2021/04/11 08:23:52;;;;;;;;;;;18.60;52.40;;;;;;4958436;28;19915;-83
2021/04/11 08:26:36;;;;;;;;;;;18.70;52.50;;;;;;4939877;28;19921;-84
2021/04/11 08:29:05;;;;;;;;;;;18.70;52.60;;;;;;4937800;28;19927;-84
2021/04/11 08:31:42;;;;;;;;;;;18.60;52.70;;;;;;4924648;28;20400;-81
2021/04/11 08:34:17;;;;;;;;;;;18.60;52.70;;;;;;4926503;28;20255;-82
2021/04/11 08:36:42;;;;;;;;;;;18.60;52.70;;;;;;4958755;28;19950;-81
2021/04/11 08:39:17;;;;;;;;;;;18.60;52.80;;;;;;4960892;28;19927;-81
2021/04/11 08:42:01;;;;;;;;;;;18.60;52.90;;;;;;4956807;28;19915;-81
2021/04/11 08:44:33;;;;;;;;;;;18.60;52.90;;;;;;4925452;29;20364;-83
2021/04/11 08:47:24;;;;;;;;;;;18.60;52.90;;;;;;4957917;28;19928;-83
2021/04/11 08:49:55;;;;;;;;;;;18.60;53.00;;;;;;4932823;28;20381;-77
2021/04/11 08:52:27;;;;;;;;;;;18.60;52.90;;;;;;4925851;28;19955;-78
2021/04/11 08:55:14;;;;;;;;;;;18.60;53.00;;;;;;4926792;28;19921;-78
2021/04/11 08:57:55;;;;;;;;;;;18.60;53.00;;;;;;4933362;29;19921;-78
2021/04/11 09:00:39;;;;;;;;;;;18.60;53.00;;;;;;4932555;28;20319;-78
2021/04/11 09:03:11;;;;;;;;;;;18.70;53.10;;;;;;4926002;28;19929;-77
2021/04/11 09:05:40;;;;;;;;;;;18.60;53.00;;;;;;4953248;28;19915;-77
2021/04/11 09:08:14;;;;;;;;;;;18.70;53.10;;;;;;4958684;28;19927;-79
2021/04/11 09:11:01;;;;;;;;;;;18.70;53.10;;;;;;4927124;29;20345;-80
2021/04/11 09:13:30;;;;;;;;;;;18.70;53.00;;;;;;4933539;28;19915;-80
2021/04/11 09:16:01;;;;;;;;;;;18.70;53.00;;;;;;4948732;28;20014;-79
2021/04/11 09:18:30;;;;;;;;;;;18.80;53.10;;;;;;4959496;28;20290;-80
2021/04/11 09:21:13;;;;;;;;;;;18.70;53.20;;;;;;4946739;28;20372;-78
2021/04/11 09:23:59;;;;;;;;;;;18.70;53.10;;;;;;4919711;29;19958;-79
2021/04/11 09:26:37;;;;;;;;;;;18.70;53.10;;;;;;4953950;28;19922;-79
2021/04/11 09:29:10;;;;;;;;;;;18.70;53.20;;;;;;4952838;28;19919;-80
2021/04/11 09:31:48;;;;;;;;;;;18.70;53.30;;;;;;4943518;28;20017;-79
2021/04/11 09:34:14;;;;;;;;;;;18.70;53.30;;;;;;4931498;28;20137;-82
2021/04/11 09:36:39;;;;;;;;;;;18.80;53.30;;;;;;4931143;28;20442;-79
2021/04/11 09:39:11;;;;;;;;;;;18.70;53.30;;;;;;4924202;29;19965;-79
2021/04/11 09:41:52;;;;;;;;;;;18.70;53.40;;;;;;4931466;29;20380;-80
2021/04/11 09:44:36;;;;;;;;;;;18.70;53.30;;;;;;4964356;28;19965;-79
2021/04/11 09:47:07;;;;;;;;;;;18.70;53.40;;;;;;4932154;28;19931;-79
2021/04/11 09:49:35;;;;;;;;;;;18.70;53.40;;;;;;4929246;29;19926;-78
2021/04/11 09:52:16;;;;;;;;;;;18.70;53.40;;;;;;4929148;28;19919;-78
2021/04/11 09:55:00;;;;;;;;;;;18.80;53.30;;;;;;4926183;28;19926;-79
2021/04/11 09:57:26;;;;;;;;;;;18.80;53.40;;;;;;4923832;29;19921;-79
2021/04/11 10:00:21;;;;;;;;;;;18.80;53.30;;;;;;4958568;28;19918;-79
2021/04/11 10:02:57;;;;;;;;;;;18.80;53.30;;;;;;5015395;28;19996;-78
2021/04/11 10:05:28;;;;;;;;;;;18.80;53.20;;;;;;4932691;28;19922;-78
2021/04/11 10:08:02;;;;;;;;;;;18.80;53.30;;;;;;4926227;28;19919;-81
2021/04/11 10:10:40;;;;;;;;;;;18.80;53.30;;;;;;4957827;28;19919;-78
2021/04/11 10:13:19;;;;;;;;;;;18.80;53.30;;;;;;4959974;28;19919;-79
2021/04/11 10:15:59;;;;;;;;;;;18.80;53.30;;;;;;4930720;29;19919;-79
2021/04/11 10:18:51;;;;;;;;;;;18.70;53.30;;;;;;4948172;28;19941;-79
2021/04/11 10:21:26;;;;;;;;;;;18.70;53.40;;;;;;4932648;28;20014;-79
2021/04/11 10:24:08;;;;;;;;;;;18.70;53.40;;;;;;4925997;28;19940;-83
2021/04/11 10:26:47;;;;;;;;;;;18.80;53.40;;;;;;4925145;29;19988;-79
2021/04/11 10:29:15;;;;;;;;;;;18.80;53.30;;;;;;4923164;28;20292;-79
2021/04/11 10:31:59;;;;;;;;;;;18.80;53.20;;;;;;4947016;28;19919;-79
2021/04/11 10:34:25;;;;;;;;;;;18.80;53.20;;;;;;4929515;29;20413;-82
2021/04/11 10:36:55;;;;;;;;;;;18.80;53.10;;;;;;4955822;28;19919;-79
2021/04/11 10:39:24;;;;;;;;;;;18.80;53.10;;;;;;4926737;29;19938;-78
2021/04/11 10:41:59;;;;;;;;;;;18.80;53.10;;;;;;4934407;28;20280;-79
2021/04/11 10:44:37;;;;;;;;;;;18.80;53.20;;;;;;4955438;28;19945;-80
2021/04/11 10:47:21;;;;;;;;;;;18.80;53.20;;;;;;4943060;28;20006;-79
2021/04/11 10:49:54;;;;;;;;;;;18.80;53.20;;;;;;4928241;28;19919;-80
2021/04/11 10:52:41;;;;;;;;;;;18.80;53.20;;;;;;4927377;28;19941;-79
2021/04/11 10:55:20;;;;;;;;;;;18.80;53.20;;;;;;4921528;28;19923;-79
2021/04/11 10:57:51;;;;;;;;;;;18.80;53.20;;;;;;4919665;28;19969;-78
2021/04/11 11:00:17;;;;;;;;;;;18.80;53.20;;;;;;4925516;28;20006;-78
2021/04/11 11:02:42;;;;;;;;;;;18.80;53.10;;;;;;4956461;28;19915;-79
2021/04/11 11:05:17;;;;;;;;;;;18.80;53.10;;;;;;4916727;29;19954;-77
2021/04/11 11:07:42;;;;;;;;;;;18.90;53.00;;;;;;4929071;28;19954;-79
2021/04/11 11:10:14;;;;;;;;;;;18.90;52.90;;;;;;4930952;28;19919;-80
2021/04/11 11:12:39;;;;;;;;;;;19.00;53.00;;;;;;4957777;28;20429;-79
2021/04/11 11:15:18;;;;;;;;;;;18.90;52.90;;;;;;4959523;28;20053;-78
2021/04/11 11:17:43;;;;;;;;;;;18.90;52.90;;;;;;4928385;28;19937;-79
2021/04/11 11:20:08;;;;;;;;;;;18.90;52.90;;;;;;4960869;28;20420;-79
2021/04/11 11:22:43;;;;;;;;;;;18.90;52.90;;;;;;4929042;28;19915;-79
2021/04/11 11:25:21;;;;;;;;;;;19.00;52.80;;;;;;4920538;28;19915;-78
2021/04/11 11:28:01;;;;;;;;;;;19.00;52.70;;;;;;4923268;28;20009;-78
2021/04/11 11:30:26;;;;;;;;;;;19.10;52.60;;;;;;4925635;29;19933;-78
2021/04/11 11:32:55;;;;;;;;;;;19.10;52.40;;;;;;4962591;28;19919;-78
2021/04/11 11:35:21;;;;;;;;;;;19.20;52.30;;;;;;4952926;28;19970;-79
2021/04/11 11:38:09;;;;;;;;;;;19.20;52.40;;;;;;4942951;28;19915;-79
2021/04/11 11:40:34;;;;;;;;;;;19.20;52.30;;;;;;4961404;28;19942;-78
2021/04/11 11:43:12;;;;;;;;;;;19.20;52.30;;;;;;4978630;28;19918;-79
2021/04/11 11:45:56;;;;;;;;;;;19.20;52.30;;;;;;4929514;29;19923;-78
2021/04/11 11:48:36;;;;;;;;;;;19.20;52.30;;;;;;4921278;29;19919;-79
2021/04/11 11:51:12;;;;;;;;;;;19.20;52.40;;;;;;4927845;28;19918;-79
2021/04/11 11:53:46;;;;;;;;;;;19.20;52.40;;;;;;4922982;28;19922;-79
2021/04/11 11:56:15;;;;;;;;;;;19.20;52.50;;;;;;4939995;28;19915;-79
2021/04/11 11:59:04;;;;;;;;;;;19.20;52.40;;;;;;4957647;28;19946;-78
2021/04/11 12:01:45;;;;;;;;;;;19.20;52.40;;;;;;4962245;28;19915;-79
2021/04/11 12:04:29;;;;;;;;;;;19.20;52.40;;;;;;4942262;28;20066;-78
2021/04/11 12:06:56;;;;;;;;;;;19.20;52.50;;;;;;4958533;28;20318;-80
2021/04/11 12:09:24;;;;;;;;;;;19.20;52.60;;;;;;4925575;29;19923;-78
2021/04/11 12:12:04;;;;;;;;;;;19.10;52.50;;;;;;4955694;28;19949;-80
2021/04/11 12:14:34;;;;;;;;;;;19.20;52.50;;;;;;4925955;28;19915;-79
2021/04/11 12:17:00;;;;;;;;;;;19.20;52.50;;;;;;4923319;29;19926;-79
2021/04/11 12:19:34;;;;;;;;;;;19.20;52.40;;;;;;4926535;28;19922;-78
2021/04/11 12:22:06;;;;;;;;;;;19.20;52.40;;;;;;4955290;28;20376;-79
2021/04/11 12:24:31;;;;;;;;;;;19.20;52.30;;;;;;4935361;28;19915;-76
2021/04/11 12:26:58;;;;;;;;;;;19.20;52.30;;;;;;4963000;28;19979;-79
2021/04/11 12:29:47;;;;;;;;;;;19.20;52.40;;;;;;4934101;28;19919;-78
2021/04/11 12:32:27;;;;;;;;;;;19.30;52.40;;;;;;4930770;28;19950;-79
2021/04/11 12:34:58;;;;;;;;;;;19.20;52.40;;;;;;4953133;28;19915;-78
2021/04/11 12:37:27;;;;;;;;;;;19.20;52.30;;;;;;4927083;28;19916;-78
2021/04/11 12:40:05;;;;;;;;;;;19.20;52.40;;;;;;4925865;28;19922;-79
2021/04/11 12:42:35;;;;;;;;;;;19.20;52.40;;;;;;4957963;28;19915;-78
2021/04/11 12:45:23;;;;;;;;;;;19.20;52.40;;;;;;4924817;29;19924;-79
2021/04/11 12:48:11;;;;;;;;;;;19.20;52.40;;;;;;4927983;29;19915;-78
2021/04/11 12:50:41;;;;;;;;;;;19.20;52.40;;;;;;4968993;28;19924;-78
2021/04/11 12:53:25;;;;;;;;;;;19.20;52.40;;;;;;4948707;28;19917;-78
2021/04/11 12:55:52;;;;;;;;;;;19.20;52.40;;;;;;4959073;28;20335;-78
2021/04/11 12:58:30;;;;;;;;;;;19.20;52.50;;;;;;4921645;29;19938;-78
2021/04/11 13:01:07;;;;;;;;;;;19.10;52.60;;;;;;4932759;28;19963;-78
2021/04/11 13:03:47;;;;;;;;;;;19.10;52.70;;;;;;4922467;29;19915;-78
2021/04/11 13:06:12;;;;;;;;;;;19.10;52.80;;;;;;4926369;29;19922;-78
2021/04/11 13:08:58;;;;;;;;;;;19.10;52.80;;;;;;4951401;28;19923;-78
2021/04/11 13:11:35;;;;;;;;;;;19.10;52.90;;;;;;4943963;28;20349;-78
2021/04/11 13:14:13;;;;;;;;;;;19.10;52.80;;;;;;4925950;28;19942;-78
2021/04/11 13:16:48;;;;;;;;;;;19.10;52.80;;;;;;4927135;28;19916;-82
2021/04/11 13:19:25;;;;;;;;;;;19.10;52.70;;;;;;4932747;28;19915;-78
2021/04/11 13:21:54;;;;;;;;;;;19.10;52.70;;;;;;4928696;28;19923;-77
2021/04/11 13:24:40;;;;;;;;;;;19.20;52.70;;;;;;4958670;28;20271;-80
2021/04/11 13:27:06;;;;;;;;;;;19.20;52.80;;;;;;4954523;28;19919;-77
2021/04/11 13:29:36;;;;;;;;;;;19.20;52.60;;;;;;4958908;28;19919;-77
2021/04/11 13:32:17;;;;;;;;;;;19.20;52.70;;;;;;4927319;28;20387;-81
2021/04/11 13:34:54;;;;;;;;;;;19.20;52.70;;;;;;4942096;28;19942;-78
2021/04/11 13:37:33;;;;;;;;;;;19.10;53.00;;;;;;4932855;28;19918;-77
2021/04/11 13:40:00;;;;;;;;;;;19.10;53.10;;;;;;4929301;28;20432;-78
2021/04/11 13:42:36;;;;;;;;;;;19.10;53.10;;;;;;4958925;28;19919;-82
2021/04/11 13:45:02;;;;;;;;;;;19.10;53.10;;;;;;4926837;28;19915;-79
2021/04/11 13:47:46;;;;;;;;;;;19.10;53.10;;;;;;4953298;28;19969;-78
2021/04/11 13:50:32;;;;;;;;;;;19.20;53.00;;;;;;4950005;28;19947;-77
2021/04/11 13:53:16;;;;;;;;;;;19.20;53.00;;;;;;4935565;28;19915;-77
2021/04/11 13:56:02;;;;;;;;;;;19.20;52.90;;;;;;4925994;28;19915;-81
2021/04/11 13:58:36;;;;;;;;;;;19.20;52.90;;;;;;4915611;28;19925;-80
2021/04/11 14:01:03;;;;;;;;;;;19.20;52.90;;;;;;4962734;28;19980;-79
2021/04/11 14:03:41;;;;;;;;;;;19.20;52.90;;;;;;4928674;28;19916;-81
2021/04/11 14:06:21;;;;;;;;;;;19.30;52.80;;;;;;4951291;28;19922;-80
2021/04/11 14:09:01;;;;;;;;;;;19.30;52.80;;;;;;4925557;29;19926;-77
2021/04/11 14:11:44;;;;;;;;;;;19.30;52.80;;;;;;4931260;28;19973;-83
2021/04/11 14:14:20;;;;;;;;;;;19.30;52.80;;;;;;4923556;28;19955;-83
2021/04/11 14:16:52;;;;;;;;;;;19.30;53.00;;;;;;4928868;29;20380;-84
2021/04/11 14:19:26;;;;;;;;;;;19.30;53.10;;;;;;4945737;28;19914;-84
2021/04/11 14:22:06;;;;;;;;;;;19.30;53.00;;;;;;4929837;28;19915;-84
2021/04/11 14:24:48;;;;;;;;;;;19.30;53.10;;;;;;4985820;28;19915;-84
2021/04/11 14:27:16;;;;;;;;;;;19.30;53.10;;;;;;4931362;28;19964;-84
2021/04/11 14:30:01;;;;;;;;;;;19.30;53.10;;;;;;4957661;28;19923;-77
2021/04/11 14:32:43;;;;;;;;;;;19.30;53.10;;;;;;4936773;28;19925;-77
2021/04/11 14:35:14;;;;;;;;;;;19.30;53.20;;;;;;4943505;28;19915;-77
2021/04/11 14:37:47;;;;;;;;;;;19.20;53.30;;;;;;4935551;28;19915;-78
2021/04/11 14:40:30;;;;;;;;;;;19.20;53.40;;;;;;4924066;28;19915;-79
2021/04/11 14:43:01;;;;;;;;;;;19.20;53.30;;;;;;4929676;28;19919;-78
2021/04/11 14:45:29;;;;;;;;;;;19.20;53.40;;;;;;4927164;28;19970;-78
2021/04/11 14:48:15;;;;;;;;;;;19.30;53.40;;;;;;4924860;28;20342;-77
2021/04/11 14:50:41;;;;;;;;;;;19.30;53.40;;;;;;4953569;28;19920;-78